Kahului, HI

4:40 PM HST on July 31, 2015 (GMT -1000)
Wailuku Kehalani | | Change Station
CLOSE
Current Station
Personal Weather Station
Location: Wailuku, HI
Elevation: 259 ft
Nearby Weather Stations

Elev 259 ft 20.87 °N, 156.50 °W | Updated 5 seconds ago

Scattered Clouds
Scattered Clouds
83.8 °F
Feels Like 91 °F
N
7.4
Wind Variable Wind from NNE
Gusts 9.8 mph

Today
High -- | Low -- °F
--% Chance of Precip.
Yesterday
High -- | Low -- °F
Precip. -- in
5:59 AM 7:04 PM
Full, 99% visible
Pressure 29.94 in
Visibility 10.0 miles
Clouds Few 2500 ft
Scattered Clouds 5000 ft
Heat Index 91 °F
Dew Point 74 °F
Humidity 73%
Rainfall 0.00 in
Snow Depth Not available.
UV 3.0 out of 12
Pollen Not available.
Air Quality Not available.
Flu Activity Not available.
METAR PHOG 010154Z 05020G29KT 10SM FEW025 SCT050 31/21 A2992 RMK AO2 PK WND 05029/0154 SLP136 T03110206

More Conditions Fewer Conditions

Pressure 29.94 in
Visibility 10.0 miles
Clouds Few 2500 ft
Scattered Clouds 5000 ft
Heat Index 91 °F
Dew Point 74 °F
Humidity 73%
Rainfall 0.00 in
Snow Depth Not available.
UV 3.0 out of 12
Pollen Not available.
Air Quality Not available.
Flu Activity Not available.
METAR PHOG 010154Z 05020G29KT 10SM FEW025 SCT050 31/21 A2992 RMK AO2 PK WND 05029/0154 SLP136 T03110206

More Conditions Fewer Conditions

10-Day Weather Forecast

×

Almanac

Astronomy

Jul. 31, 2015 Rise Set
Actual Time
Civil Twilight
Nautical Twilight
Astronomical Twilight
Moon
Length of Visible Light
Length of Day
Tomorrow will be .
, % of the Moon is Illuminated

Today's Extremes

State Highs State Lows

Community

WunderPhotos

Upload Photos

1,842,834 photos uploaded!

WunderBlogs® & News

Nearby

Air Quality

  Air Quality AQ Index Pollutant
Not available.

Snow Depth

Station Depth Elevation

Earthquake Activity

City Distance Mag. Time & Date
Minimum magnitude displayed is 2.5.

Coastal Water Temperatures

Place Temperature

Stations

Nearby Weather Stations

Station Location Temp. Windchill Dew Point Humidity Wind Precip. Elev Updated Type